Flight Track Log - Related Links

Times and Time Zones

All times are in EDT time to prevent confusion due to time zone crossing. See the OPT429 flight status page for this flight to view local times or setup timezone preferences in your user account.

Time Position Orientation Groundspeed Altitude Reporting Facility
EDT Latitude Longitude Course Direction KTS MPH feet Rate Location/Type
Thu 08:18:55 AM 45.4828 -73.7078 199° South 166 191 900  Level Boston Center
Thu 08:19:56 AM 45.5425 -73.6378 39° Northeast 228 262 4,800 3,098 Climbing Boston Center
Thu 08:20:57 AM 45.5067 -73.5636 125° Southeast 257 296 7,200 2,852 Climbing Boston Center
Thu 08:21:58 AM 45.4450 -73.6014 203° Southwest 253 291 10,600 3,328 Climbing Boston Center
Thu 08:23:14 AM 45.3667 -73.6833 216° Southwest 230 265 14,800 2,647 Climbing Montreal Center
Thu 08:24:00 AM 45.4155 -73.7674 199° South  Level FlightAware Approximate
Thu 08:24:14 AM 45.3167 -73.7333 215° Southwest 250 288 16,600  Level Montreal Center
Thu 08:25:14 AM 45.2500 -73.7833 208° Southwest 280 322 18,200 1,550 Climbing Montreal Center
Thu 08:26:14 AM 45.1667 -73.7833 180° South 310 357 19,700 1,500 Climbing Montreal Center
Thu 08:27:14 AM 45.0667 -73.7833 180° South 330 380 21,200 1,450 Climbing Montreal Center
Thu 08:28:14 AM 44.9833 -73.7833 180° South 330 380 22,600 1,400 Climbing Montreal Center
Thu 08:29:14 AM 44.8833 -73.8000 187° South 330 380 24,000 1,500 Climbing Montreal Center
Thu 08:30:14 AM 44.8000 -73.8000 180° South 320 368 25,600 1,500 Climbing Montreal Center
Thu 08:31:14 AM 44.7000 -73.7833 173° South 320 368 27,000 1,450 Climbing Montreal Center
Thu 08:32:14 AM 44.6167 -73.7833 180° South 330 380 28,500 1,397 Climbing Montreal Center
Thu 08:33:10 AM 44.5478 -73.7992 189° South 333 383 29,700 1,282 Climbing Boston Center
Thu 08:34:11 AM 44.4517 -73.7992 180° South 344 396 31,000 1,131 Climbing Boston Center
Thu 08:35:12 AM 44.3525 -73.7997 180° South 353 406 32,000 496 Climbing Boston Center
Thu 08:36:12 AM 44.2436 -73.8014 181° South 386 444 32,000  Level Boston Center
Thu 08:37:13 AM 44.1278 -73.7997 179° South 412 474 32,000  Level Boston Center
Thu 08:38:13 AM 43.9953 -73.7997 180° South 397 457 32,000  Level Boston Center
Thu 08:39:17 AM 43.8936 -73.7997 180° South 392 451 32,000  Level Boston Center
Thu 08:40:17 AM 43.7847 -73.8006 180° South 391 450 32,000  Level Boston Center
Thu 08:41:17 AM 43.6758 -73.8014 180° South 391 450 32,000  Level Boston Center
Thu 08:42:18 AM 43.5619 -73.8014 180° South 390 449 32,000  Level Boston Center
Thu 08:43:22 AM 43.4517 -73.8006 180° South 395 455 32,000  Level Boston Center
Thu 08:44:23 AM 43.3425 -73.8022 181° South 406 467 32,000  Level Boston Center
Thu 08:45:23 AM 43.2278 -73.8006 179° South 407 468 32,000 -49 Level Boston Center
Thu 08:46:25 AM 43.1119 -73.8022 181° South 412 474 31,900 -1,220 Descending Boston Center
Thu 08:47:26 AM 42.9956 -73.8025 180° South 415 478 29,500 -2,678 Descending Boston Center
Thu 08:48:26 AM 42.8578 -73.8028 180° South 414 476 26,500 -2,600 Descending Boston Center
Thu 08:49:26 AM 42.7617 -73.8022 180° South 410 472 24,300 -1,240 Descending Boston Center
Thu 08:50:27 AM 42.6550 -73.7831 172° South 388 447 24,000 -1,258 Descending Boston Center
Thu 08:51:30 AM 42.5358 -73.7600 172° South 364 419 21,700 -2,226 Descending Boston Center
Thu 08:52:31 AM 42.4353 -73.7669 183° South 364 419 19,400 -1,820 Descending Boston Center
Thu 08:53:32 AM 42.3286 -73.7742 183° South 361 415 18,000 -744 Descending Boston Center
Thu 08:54:32 AM 42.2431 -73.7814 184° South 312 359 17,900 -49 Descending Boston Center
Thu 08:55:34 AM 42.1594 -73.7856 182° South 303 349 17,900  Level Boston Center
Thu 08:56:35 AM 42.0625 -73.7931 183° South 329 379 17,900  Level Boston Center
Thu 08:57:35 AM 41.9667 -73.8008 183° South 344 396 17,900  Level Boston Center
Thu 08:58:38 AM 41.8681 -73.8075 183° South 351 404 17,900 -341 Level Boston Center
Thu 08:59:38 AM 41.7689 -73.8144 183° South 356 410 17,200 -1,388 Descending Boston Center
Thu 09:00:39 AM 41.6678 -73.8225 183° South 341 392 15,100 -1,967 Descending Boston Center
Thu 09:01:40 AM 41.5794 -73.8456 191° South 323 372 13,200 -1,918 Descending Boston Center
Thu 09:02:41 AM 41.4883 -73.8678 190° South 329 379 11,200 -2,115 Descending Boston Center
Thu 09:03:42 AM 41.4025 -73.8525 172° South 315 362 8,900 -1,884 Descending Boston Center
Thu 09:04:42 AM 41.3797 -73.7581 108° East 282 325 7,400 -1,548 Descending Boston Center
Thu 09:05:46 AM 41.3739 -73.6547 94° East 260 299 5,700 -1,584 Descending Boston Center
Thu 09:06:47 AM 41.3114 -73.6331 165° South 235 270 4,100 -843 Descending Boston Center
Thu 09:07:47 AM 41.2525 -73.6314 179° South 214 246 4,000  Descending Boston Center
Thu 09:08:44 AM 41.2000 -73.6333 182° South 221 254 4,100 51 Climbing New York TRACON
Thu 09:09:44 AM 41.1500 -73.7000 225° Southwest 224 258 4,100  Level New York TRACON
Thu 09:10:44 AM 41.1167 -73.7333 217° Southwest 172 198 4,100  Level New York TRACON
Thu 09:11:50 AM 41.0833 -73.7833 229° Southwest 195 224 4,100 -48 Level New York TRACON
Thu 09:12:50 AM 41.0667 -73.8500 252° West 202 232 4,000 -550 Descending New York TRACON
Thu 09:13:50 AM 41.0500 -73.9167 252° West 202 232 3,000 -476 Descending New York TRACON
Thu 09:14:56 AM 41.0333 -74.0000 255° West 182 209 3,000  Level New York TRACON
Thu 09:15:56 AM 41.0000 -74.0333 217° Southwest 176 203 3,000  Level New York TRACON
Thu 09:16:56 AM 40.9500 -74.0667 207° Southwest 180 207 3,000  Level New York TRACON
Thu 09:17:56 AM 40.9000 -74.0667 180° South 171 197 3,000  Level New York TRACON
Thu 09:18:50 AM 40.8667 -74.0500 159° South 168 193 3,000 -105 Level New York TRACON
Thu 09:19:50 AM 40.8500 -74.0000 114° Southeast 142 163 2,800 -600 Descending New York TRACON
Thu 09:20:50 AM 40.8333 -73.9667 123° Southeast 105 121 1,800 -842 Descending New York TRACON
Thu 09:21:44 AM 40.8167 -73.9500 143° Southeast 108 124 1,200 -650 Descending New York TRACON
Thu 09:22:50 AM 40.8000 -73.9000 114° Southeast 120 138 500 -636 Descending New York TRACON

Login

Don't have an account? Register now (free) for customized features, flight alerts, and more!